createdAt,value
2019-05-18T00:01:01.609Z,0.6
2019-05-18T00:01:37.570Z,0.6
2019-05-18T00:02:49.624Z,0.8
2019-05-18T00:04:01.568Z,0.4
2019-05-18T00:04:37.675Z,0.4
2019-05-18T00:05:49.701Z,0.2
2019-05-18T00:07:01.545Z,0.6
2019-05-18T00:07:37.615Z,0.6
2019-05-18T00:08:49.543Z,0.6
2019-05-18T00:10:01.700Z,0.4
2019-05-18T00:10:37.627Z,0.8
2019-05-18T00:11:49.559Z,0.6
2019-05-18T00:13:01.613Z,0.8
2019-05-18T00:13:37.538Z,0.6
2019-05-18T00:14:49.672Z,0
2019-05-18T00:16:01.549Z,0.8
2019-05-18T00:16:37.621Z,0.4
2019-05-18T00:17:26.118Z,0.2
2019-05-18T00:19:01.519Z,0.8
2019-05-18T00:19:37.613Z,0.6
2019-05-18T00:20:49.527Z,0
2019-05-18T00:22:01.709Z,0.4
2019-05-18T00:22:37.573Z,0.8
2019-05-18T00:23:49.627Z,0.4
2019-05-18T00:25:01.667Z,0.6
2019-05-18T00:25:37.521Z,0.6
2019-05-18T00:26:49.582Z,0.2
2019-05-18T00:28:01.568Z,0.8
2019-05-18T00:28:37.614Z,0.8
2019-05-18T00:29:49.551Z,0.8
2019-05-18T00:31:01.650Z,0.4
2019-05-18T00:31:37.677Z,0.6
2019-05-18T00:32:49.569Z,0.6
2019-05-18T00:34:01.587Z,0.4
2019-05-18T00:34:37.543Z,0.2
2019-05-18T00:35:49.611Z,0.2
2019-05-18T00:37:01.551Z,0.8
2019-05-18T00:37:37.526Z,0.6
2019-05-18T00:38:49.598Z,0.6
2019-05-18T00:40:01.517Z,0.6
2019-05-18T00:40:37.602Z,0.8
2019-05-18T00:41:49.541Z,0.6
2019-05-18T00:43:01.655Z,0.8
2019-05-18T00:43:37.571Z,0.6
2019-05-18T00:44:49.544Z,0.6
2019-05-18T00:46:01.561Z,0.6
2019-05-18T00:46:37.527Z,0.6
2019-05-18T00:47:49.599Z,0.8
2019-05-18T00:49:01.525Z,0.8
2019-05-18T00:49:37.497Z,0.6
2019-05-18T00:50:49.560Z,0.8
2019-05-18T00:52:01.496Z,0.2
2019-05-18T00:52:37.607Z,0.6
2019-05-18T00:53:49.620Z,0.6
2019-05-18T00:55:01.638Z,0.8
2019-05-18T00:55:37.542Z,0.8
2019-05-18T00:56:49.527Z,0.9
2019-05-18T00:58:01.546Z,0.8
2019-05-18T00:58:37.517Z,0.6
2019-05-18T01:01:01.510Z,0.6
2019-05-18T01:01:37.621Z,0.4
2019-05-18T01:02:49.573Z,0.8
2019-05-18T01:04:01.620Z,0.4
2019-05-18T01:04:37.634Z,0.4
2019-05-18T01:05:49.522Z,0.2
2019-05-18T01:07:01.575Z,0.8
2019-05-18T01:07:37.556Z,0.8
2019-05-18T01:08:49.580Z,0
2019-05-18T01:10:01.551Z,0.4
2019-05-18T01:10:37.516Z,0.4
2019-05-18T01:11:49.556Z,0.8
2019-05-18T01:13:01.514Z,0.6
2019-05-18T01:13:37.603Z,0.6
2019-05-18T01:14:49.647Z,0
2019-05-18T01:16:01.590Z,0.2
2019-05-18T01:16:37.600Z,0.7
2019-05-18T01:18:02.718Z,0.4
2019-05-18T01:19:01.556Z,0.6
2019-05-18T01:19:37.522Z,0.6
2019-05-18T01:20:49.568Z,0.6
2019-05-18T01:22:01.523Z,0.4
2019-05-18T01:22:37.495Z,0
2019-05-18T01:23:49.548Z,0.6
2019-05-18T01:25:01.499Z,0.2
2019-05-18T01:25:37.591Z,0.6
2019-05-18T01:26:49.515Z,0.4
2019-05-18T01:28:01.620Z,0.8
2019-05-18T01:28:37.563Z,0.6
2019-05-18T01:29:49.478Z,0.4
2019-05-18T01:31:01.548Z,0.4
2019-05-18T01:31:37.505Z,0.2
2019-05-18T01:32:49.570Z,0.8
2019-05-18T01:34:01.580Z,0.2
2019-05-18T01:34:37.470Z,0.8
2019-05-18T01:35:49.540Z,0.2
2019-05-18T01:37:01.582Z,0.2
2019-05-18T01:37:37.577Z,0
2019-05-18T01:38:49.551Z,0.6
2019-05-18T01:40:01.558Z,0.2
2019-05-18T01:40:37.527Z,0
2019-05-18T01:41:49.606Z,0.6
2019-05-18T01:43:01.599Z,0.6
2019-05-18T01:43:37.503Z,0
2019-05-18T01:44:49.555Z,0.2
2019-05-18T01:46:01.497Z,0.4
2019-05-18T01:46:37.594Z,0.2
2019-05-18T01:47:49.523Z,0
2019-05-18T01:49:01.572Z,0
2019-05-18T01:49:37.546Z,0
2019-05-18T01:50:49.483Z,0.4
2019-05-18T01:51:25.587Z,0.2
2019-05-18T01:52:01.578Z,0.6
2019-05-18T01:52:37.544Z,0.4
2019-05-18T01:53:49.593Z,0.4
2019-05-18T01:54:25.550Z,0.4
2019-05-18T01:55:37.498Z,0
2019-05-18T01:56:49.557Z,0.2
2019-05-18T01:57:25.575Z,0.6
2019-05-18T01:58:37.596Z,0.4
2019-05-18T01:59:49.531Z,0.8
2019-05-18T02:00:25.485Z,0.8
2019-05-18T02:01:37.584Z,0.2
2019-05-18T02:02:49.473Z,0
2019-05-18T02:03:26.856Z,0
2019-05-18T02:04:37.512Z,0.2
2019-05-18T02:05:49.608Z,0.6
2019-05-18T02:06:25.552Z,0.2
2019-05-18T02:07:37.492Z,0.6
2019-05-18T02:08:49.806Z,0.2
2019-05-18T02:09:25.506Z,0.6
2019-05-18T02:10:37.618Z,0.6
2019-05-18T02:11:49.507Z,0.4
2019-05-18T02:12:25.503Z,0.2
2019-05-18T02:13:37.544Z,0.2
2019-05-18T02:14:49.593Z,0.2
2019-05-18T02:15:25.582Z,0.6
2019-05-18T02:16:37.540Z,0.4
2019-05-18T02:17:49.583Z,0
2019-05-18T02:18:30.049Z,0
2019-05-18T02:19:37.602Z,0.2
2019-05-18T02:20:49.572Z,0.4
2019-05-18T02:21:25.492Z,0.4
2019-05-18T02:22:37.559Z,0.2
2019-05-18T02:23:49.500Z,0.6
2019-05-18T02:24:25.585Z,0.4
2019-05-18T02:25:37.525Z,0.2
2019-05-18T02:26:49.575Z,0.6
2019-05-18T02:27:25.549Z,0.2
2019-05-18T02:28:37.494Z,0.4
2019-05-18T02:29:49.556Z,0.6
2019-05-18T02:30:25.550Z,0.6
2019-05-18T02:31:37.605Z,0.4
2019-05-18T02:32:49.558Z,0
2019-05-18T02:33:25.557Z,0.4
2019-05-18T02:34:37.566Z,0.6
2019-05-18T02:35:49.523Z,0.6
2019-05-18T02:36:25.594Z,0.4
2019-05-18T02:37:37.551Z,0.4
2019-05-18T02:38:49.572Z,0.4
2019-05-18T02:39:25.548Z,0.6
2019-05-18T02:40:37.478Z,0.2
2019-05-18T02:41:49.565Z,0.6
2019-05-18T02:42:25.541Z,0.4
2019-05-18T02:43:37.587Z,0.2
2019-05-18T02:44:49.507Z,0.8
2019-05-18T02:45:25.506Z,0.6
2019-05-18T02:46:37.566Z,0.4
2019-05-18T02:47:49.572Z,0.4
2019-05-18T02:48:25.596Z,0.4
2019-05-18T02:49:37.574Z,0.4
2019-05-18T02:50:49.593Z,0
2019-05-18T02:51:25.551Z,0
2019-05-18T02:52:37.587Z,0.4
2019-05-18T02:53:49.540Z,0.2
2019-05-18T02:54:25.511Z,0.2
2019-05-18T02:55:37.565Z,0
2019-05-18T02:56:49.510Z,0.4
2019-05-18T02:57:25.607Z,0.2
2019-05-18T02:58:37.669Z,0.2
2019-05-18T02:59:49.583Z,0
2019-05-18T03:00:25.555Z,0
2019-05-18T03:01:37.497Z,0.2
2019-05-18T03:02:49.566Z,0
2019-05-18T03:03:25.535Z,0.4
2019-05-18T03:04:37.603Z,0
2019-05-18T03:05:49.522Z,0.2
2019-05-18T03:06:25.522Z,0.2
2019-05-18T03:07:37.536Z,0
2019-05-18T03:08:49.470Z,0
2019-05-18T03:09:25.567Z,0.2
2019-05-18T03:10:37.514Z,0
2019-05-18T03:11:49.561Z,0.2
2019-05-18T03:12:25.586Z,0
2019-05-18T03:13:37.516Z,0.4
2019-05-18T03:14:49.523Z,0
2019-05-18T03:15:25.524Z,0
2019-05-18T03:16:49.465Z,0.4
2019-05-18T03:17:25.615Z,0.2
2019-05-18T03:18:37.590Z,0.8
2019-05-18T03:19:49.552Z,0.2
2019-05-18T03:20:25.541Z,0.2
2019-05-18T03:21:37.470Z,0.4
2019-05-18T03:22:49.546Z,0
2019-05-18T03:23:25.491Z,0.4
2019-05-18T03:24:37.562Z,0.6
2019-05-18T03:25:49.495Z,0.4
2019-05-18T03:26:25.625Z,0.4
2019-05-18T03:27:37.646Z,0.2
2019-05-18T03:28:49.577Z,0.2
2019-05-18T03:29:25.569Z,0
2019-05-18T03:30:37.510Z,0.6
2019-05-18T03:31:49.596Z,0
2019-05-18T03:32:25.586Z,0
2019-05-18T03:33:37.639Z,0.4
2019-05-18T03:34:49.538Z,0
2019-05-18T03:35:25.509Z,0.4
2019-05-18T03:36:37.528Z,0.2
2019-05-18T03:37:25.536Z,0.4
2019-05-18T03:38:37.469Z,0.4
2019-05-18T03:39:49.597Z,0
2019-05-18T03:40:25.499Z,0.2
2019-05-18T03:41:37.595Z,0.8
2019-05-18T03:42:49.500Z,0.2
2019-05-18T03:43:25.455Z,0
2019-05-18T03:44:37.625Z,0.6
2019-05-18T03:45:49.482Z,0.4
2019-05-18T03:46:25.550Z,0.2
2019-05-18T03:47:37.507Z,0.2
2019-05-18T03:48:49.553Z,0
2019-05-18T03:49:28.578Z,0.2
2019-05-18T03:50:37.485Z,0.8
2019-05-18T03:51:49.520Z,0
2019-05-18T03:52:25.491Z,0
2019-05-18T03:53:37.547Z,0.4
2019-05-18T03:54:49.498Z,0.4
2019-05-18T03:55:25.487Z,0.2
2019-05-18T03:56:37.529Z,0
2019-05-18T03:57:49.462Z,0
2019-05-18T03:58:25.575Z,0.2
2019-05-18T03:59:37.524Z,0
2019-05-18T04:00:49.537Z,0.4
2019-05-18T04:01:25.512Z,0.2
2019-05-18T04:02:37.606Z,0.6
2019-05-18T04:03:49.599Z,0.8
2019-05-18T04:04:25.484Z,0.8
2019-05-18T04:05:37.542Z,0.4
2019-05-18T04:06:49.495Z,0.6
2019-05-18T04:07:25.556Z,0.2
2019-05-18T04:08:37.521Z,0.6
2019-05-18T04:09:49.810Z,0.8
2019-05-18T04:10:25.570Z,0.4
2019-05-18T04:11:37.478Z,0
2019-05-18T04:12:49.522Z,0.6
2019-05-18T04:13:25.589Z,0.2
2019-05-18T04:14:37.597Z,0.6
2019-05-18T04:15:49.487Z,0.2
2019-05-18T04:16:25.479Z,0.2
2019-05-18T04:17:37.528Z,0.4
2019-05-18T04:18:49.485Z,0.6
2019-05-18T04:19:46.041Z,0.8
2019-05-18T04:20:37.521Z,0.8
2019-05-18T04:21:49.550Z,0.9
2019-05-18T04:22:25.507Z,0.9
2019-05-18T04:23:37.531Z,0.4
2019-05-18T04:24:49.551Z,0.8
2019-05-18T04:25:25.487Z,0.8
2019-05-18T04:26:37.617Z,0.6
2019-05-18T04:27:49.491Z,0.8
2019-05-18T04:28:25.499Z,0.6
2019-05-18T04:29:37.524Z,0.6
2019-05-18T04:30:49.443Z,0.2
2019-05-18T04:31:25.543Z,0.2
2019-05-18T04:32:37.469Z,0.4
2019-05-18T04:34:01.475Z,0
2019-05-18T04:34:37.545Z,0
2019-05-18T04:35:49.482Z,0.4
2019-05-18T04:36:25.456Z,0.8
2019-05-18T04:37:37.507Z,0.4
2019-05-18T04:38:49.459Z,0.2
2019-05-18T04:39:25.539Z,0.6
2019-05-18T04:40:37.493Z,0.2
2019-05-18T04:41:49.513Z,0
2019-05-18T04:42:25.487Z,0
2019-05-18T04:43:37.587Z,0
2019-05-18T04:44:49.498Z,0
2019-05-18T04:45:25.472Z,0
2019-05-18T04:46:37.516Z,0.2
2019-05-18T04:47:49.860Z,0
2019-05-18T04:48:25.539Z,0.2
2019-05-18T04:49:37.484Z,0
2019-05-18T04:50:49.547Z,0.4
2019-05-18T04:51:25.539Z,0.6
2019-05-18T04:52:37.486Z,0.8
2019-05-18T04:53:49.514Z,0.8
2019-05-18T04:54:25.472Z,0.4
2019-05-18T04:55:37.602Z,0.8
2019-05-18T04:56:49.470Z,1.1
2019-05-18T04:57:25.454Z,1.5
2019-05-18T04:58:37.512Z,0.8
2019-05-18T04:59:49.441Z,0.4
2019-05-18T05:00:25.525Z,0.8
2019-05-18T05:01:37.512Z,1
2019-05-18T05:02:49.519Z,0.7
2019-05-18T05:03:25.504Z,0.9
2019-05-18T05:04:37.434Z,1.2
2019-05-18T05:05:49.497Z,1.2
2019-05-18T05:06:25.498Z,1.2
2019-05-18T05:07:37.558Z,0.4
2019-05-18T05:08:49.441Z,0.8
2019-05-18T05:09:25.453Z,0.6
2019-05-18T05:10:05.207Z,0.4
2019-05-18T05:11:49.465Z,0.8
2019-05-18T05:12:25.502Z,0.8
2019-05-18T05:13:37.447Z,0.8
2019-05-18T05:14:49.503Z,1.6
2019-05-18T05:15:25.490Z,1.3
2019-05-18T05:16:37.405Z,0.8
2019-05-18T05:17:49.467Z,1
2019-05-18T05:18:25.445Z,0.9
2019-05-18T05:19:37.492Z,1.5
2019-05-18T05:20:20.896Z,1.3
2019-05-18T05:21:25.414Z,0.8
2019-05-18T05:22:37.513Z,1
2019-05-18T05:24:01.659Z,1.4
2019-05-18T05:24:37.393Z,1.4
2019-05-18T05:25:25.425Z,1.5
2019-05-18T05:26:40.525Z,1.4
2019-05-18T05:27:49.413Z,1.1
2019-05-18T05:28:25.485Z,1.3
2019-05-18T05:29:37.452Z,1.4
2019-05-18T05:30:49.496Z,1.1
2019-05-18T05:31:25.536Z,0.8
2019-05-18T05:32:37.405Z,1
2019-05-18T05:34:01.516Z,0.8
2019-05-18T05:34:37.470Z,0.6
2019-05-18T05:35:49.537Z,1.2
2019-05-18T05:36:25.470Z,1.2
2019-05-18T05:37:37.543Z,0.5
2019-05-18T05:38:49.481Z,0.8
2019-05-18T05:39:25.460Z,0.8
2019-05-18T05:40:37.496Z,0.8
2019-05-18T05:41:17.466Z,0.8
2019-05-18T05:42:37.448Z,1.6
2019-05-18T05:43:49.778Z,0.4
2019-05-18T05:44:25.471Z,0.4
2019-05-18T05:45:37.398Z,0.6
2019-05-18T05:46:49.452Z,1
2019-05-18T05:47:25.434Z,0.8
2019-05-18T05:48:37.483Z,0.8
2019-05-18T05:49:49.428Z,0.8
2019-05-18T05:50:37.264Z,0.8
2019-05-18T05:51:37.456Z,0.2
2019-05-18T05:52:49.410Z,0.2
2019-05-18T05:53:25.481Z,0.2
2019-05-18T05:54:37.432Z,0.6
2019-05-18T05:55:49.481Z,0.6
2019-05-18T05:56:25.435Z,0.8
2019-05-18T05:57:37.424Z,0.2
2019-05-18T05:58:49.454Z,0.4
2019-05-18T05:59:25.421Z,0.6
2019-05-18T06:00:49.425Z,0.7
2019-05-18T06:01:25.477Z,1.2
2019-05-18T06:02:37.476Z,1.6
2019-05-18T06:03:49.505Z,0.2
2019-05-18T06:04:25.473Z,0.4
2019-05-18T06:05:49.405Z,0.9
2019-05-18T06:06:25.377Z,0.9
2019-05-18T06:07:37.443Z,0.8
2019-05-18T06:08:49.378Z,0.8
2019-05-18T06:09:25.467Z,0.8
2019-05-18T06:10:37.423Z,0.8
2019-05-18T06:11:49.457Z,0.9
2019-05-18T06:12:25.454Z,0.4
2019-05-18T06:13:37.405Z,0.2
2019-05-18T06:14:49.449Z,0.8
2019-05-18T06:15:25.397Z,1
2019-05-18T06:16:37.446Z,1.1
2019-05-18T06:17:49.394Z,0.4
2019-05-18T06:18:25.364Z,0.6
2019-05-18T06:19:37.503Z,0.8
2019-05-18T06:20:52.723Z,1
2019-05-18T06:21:25.495Z,0.9
2019-05-18T06:22:37.525Z,0.4
2019-05-18T06:23:49.443Z,0.8
2019-05-18T06:24:25.433Z,0.8
2019-05-18T06:25:37.391Z,0.6
2019-05-18T06:26:49.500Z,0.4
2019-05-18T06:27:25.431Z,0.8
2019-05-18T06:28:37.472Z,0.9
2019-05-18T06:29:49.385Z,0.8
2019-05-18T06:30:25.371Z,0.8
2019-05-18T06:31:37.413Z,1
2019-05-18T06:32:49.458Z,0.8
2019-05-18T06:33:25.455Z,0.8
2019-05-18T06:34:37.399Z,1.1
2019-05-18T06:35:49.435Z,0.9
2019-05-18T06:36:25.393Z,0.7
2019-05-18T06:37:37.470Z,0.6
2019-05-18T06:38:49.403Z,0.8
2019-05-18T06:39:25.375Z,0.8
2019-05-18T06:40:25.397Z,0.8
2019-05-18T06:41:01.361Z,0.8
2019-05-18T06:41:37.448Z,0.8
2019-05-18T06:43:01.440Z,1
2019-05-18T06:43:37.390Z,0.8
2019-05-18T06:45:01.378Z,0.8
2019-05-18T06:45:37.454Z,0.8
2019-05-18T06:46:49.386Z,0.4
2019-05-18T06:47:25.377Z,0.4
2019-05-18T06:48:37.431Z,0.8
2019-05-18T06:49:49.366Z,0.6
2019-05-18T06:50:25.461Z,0.2
2019-05-18T06:51:08.480Z,0.2
2019-05-18T06:52:49.451Z,0.6
2019-05-18T06:53:25.418Z,0.6
2019-05-18T06:55:13.452Z,0.8
2019-05-18T06:55:49.480Z,0.8
2019-05-18T06:56:25.400Z,0.8
2019-05-18T06:57:37.427Z,0.6
2019-05-18T06:58:13.444Z,0.8
2019-05-18T06:59:01.419Z,1
2019-05-18T06:59:49.399Z,1
2019-05-18T07:00:25.365Z,1.1
2019-05-18T07:01:49.345Z,0.8
2019-05-18T07:02:25.416Z,1
2019-05-18T07:03:37.396Z,1.1
2019-05-18T07:04:25.405Z,0.8
2019-05-18T07:05:01.492Z,0.8
2019-05-18T07:05:37.462Z,0.9
2019-05-18T07:06:49.382Z,0.5
2019-05-18T07:08:01.425Z,0.8
2019-05-18T07:08:49.417Z,1
2019-05-18T07:10:13.398Z,0.8
2019-05-18T07:11:01.439Z,1
2019-05-18T07:11:49.374Z,1
2019-05-18T07:13:01.328Z,1
2019-05-18T07:13:37.440Z,0.8
2019-05-18T07:14:26.843Z,1
2019-05-18T07:15:37.344Z,0.9
2019-05-18T07:16:49.426Z,0.9
2019-05-18T07:18:01.353Z,0.8
2019-05-18T07:18:37.323Z,1
2019-05-18T07:19:49.407Z,1.5
2019-05-18T07:21:01.305Z,1.2
2019-05-18T07:21:49.321Z,0.9
2019-05-18T07:22:37.362Z,1
2019-05-18T07:24:01.412Z,0.6
2019-05-18T07:24:37.446Z,0.8
2019-05-18T07:25:37.411Z,0.8
2019-05-18T07:26:25.399Z,1.1
2019-05-18T07:27:25.328Z,0.9
2019-05-18T07:28:01.446Z,0.9
2019-05-18T07:28:49.411Z,0.8
2019-05-18T07:29:37.392Z,1.1
2019-05-18T07:30:49.365Z,1.1
2019-05-18T07:31:25.305Z,0.4
2019-05-18T07:32:37.389Z,0.5
2019-05-18T07:34:13.399Z,1
2019-05-18T07:34:49.377Z,1.1
2019-05-18T07:35:25.334Z,0.8
2019-05-18T07:36:13.314Z,0.6
2019-05-18T07:37:25.557Z,0.8
2019-05-18T07:38:37.431Z,0.8
2019-05-18T07:39:37.324Z,0.8
2019-05-18T07:40:25.333Z,0.8
2019-05-18T07:41:01.406Z,0.8
2019-05-18T07:41:47.870Z,0.8
2019-05-18T07:42:49.322Z,0
2019-05-18T07:44:01.383Z,0.4
2019-05-18T07:44:49.378Z,0.8
2019-05-18T07:46:37.438Z,0.6
2019-05-18T07:48:01.380Z,0.6
2019-05-18T07:48:37.339Z,0.6
2019-05-18T07:49:13.324Z,0.9
2019-05-18T07:50:13.350Z,0.8
2019-05-18T07:50:49.325Z,0.4
2019-05-18T07:52:37.357Z,0.8
2019-05-18T07:54:01.310Z,0.6
2019-05-18T07:54:37.906Z,0.8
2019-05-18T07:56:37.408Z,0.6
2019-05-18T07:57:13.389Z,0.6
2019-05-18T07:59:13.415Z,0.6
2019-05-18T08:00:25.346Z,0.8
2019-05-18T08:01:01.494Z,0.6
2019-05-18T08:01:37.442Z,0.6
2019-05-18T08:03:49.348Z,0.8
2019-05-18T08:04:25.406Z,0.8
2019-05-18T08:05:13.406Z,0.8
2019-05-18T08:05:49.459Z,0.8
2019-05-18T08:07:01.339Z,0.8
2019-05-18T08:08:01.394Z,0.6
2019-05-18T08:10:25.431Z,0.6
2019-05-18T08:11:01.370Z,0.4
2019-05-18T08:11:37.312Z,0.6
2019-05-18T08:12:25.353Z,0.8
2019-05-18T08:13:13.376Z,0.8
2019-05-18T08:13:49.409Z,0.8
2019-05-18T08:14:25.337Z,0.8
2019-05-18T08:15:52.531Z,0.9
2019-05-18T08:16:37.331Z,1.2
2019-05-18T08:18:01.305Z,0.8
2019-05-18T08:19:13.382Z,1.1
2019-05-18T08:20:25.275Z,0.7
2019-05-18T08:21:13.284Z,0.8
2019-05-18T08:21:54.430Z,0.8
2019-05-18T08:23:13.338Z,1
2019-05-18T08:23:49.300Z,1
2019-05-18T08:24:25.279Z,1
2019-05-18T08:25:49.357Z,1
2019-05-18T08:26:25.352Z,0.9
2019-05-18T08:28:25.265Z,0.8
2019-05-18T08:29:01.364Z,0.8
2019-05-18T08:29:49.365Z,0.8
2019-05-18T08:30:25.396Z,0.8
2019-05-18T08:31:37.274Z,0.8
2019-05-18T08:32:49.314Z,1
2019-05-18T08:33:25.297Z,1
2019-05-18T08:34:13.297Z,0.8
2019-05-18T08:35:13.317Z,0.9
2019-05-18T08:35:49.290Z,1.2
2019-05-18T08:37:13.268Z,0.7
2019-05-18T08:37:49.378Z,0.2
2019-05-18T08:38:49.364Z,0.6
2019-05-18T08:39:25.389Z,0.6
2019-05-18T08:40:37.282Z,0.9
2019-05-18T08:41:13.439Z,0.8
2019-05-18T08:41:49.919Z,0.8
2019-05-18T08:42:37.364Z,0.8
2019-05-18T08:44:01.322Z,1
2019-05-18T08:44:49.298Z,0.9
2019-05-18T08:46:01.365Z,0.8
2019-05-18T08:46:37.330Z,0.8
2019-05-18T08:47:49.303Z,0.8
2019-05-18T08:49:01.325Z,0.6
2019-05-18T08:50:01.365Z,0.8
2019-05-18T08:50:37.317Z,0.6
2019-05-18T08:51:13.296Z,0.6
2019-05-18T08:52:25.371Z,0.6
2019-05-18T08:53:13.362Z,0.8
2019-05-18T08:54:25.291Z,1.1
2019-05-18T08:55:01.260Z,0.8
2019-05-18T08:56:13.326Z,1.1
2019-05-18T08:57:25.256Z,0.8
2019-05-18T08:58:01.342Z,0.8
2019-05-18T08:58:37.346Z,0.6
2019-05-18T08:59:49.261Z,0.8
2019-05-18T09:00:25.353Z,0.8
2019-05-18T09:01:37.294Z,0.8
2019-05-18T09:02:49.347Z,1
2019-05-18T09:03:25.335Z,0.9
2019-05-18T09:04:37.254Z,0.8
2019-05-18T09:05:49.312Z,0.6
2019-05-18T09:06:25.318Z,0.8
2019-05-18T09:08:01.295Z,0.8
2019-05-18T09:08:49.303Z,0.9
2019-05-18T09:09:25.270Z,0.9
2019-05-18T09:10:01.359Z,0.8
2019-05-18T09:11:13.279Z,0.7
2019-05-18T09:12:25.347Z,0.6
2019-05-18T09:13:01.301Z,0.6
2019-05-18T09:14:13.249Z,0.6
2019-05-18T09:15:01.254Z,0.6
2019-05-18T09:16:13.318Z,0.4
2019-05-18T09:17:25.241Z,0.8
2019-05-18T09:18:04.294Z,0.4
2019-05-18T09:19:13.254Z,0.6
2019-05-18T09:20:37.830Z,0.8
2019-05-18T09:21:13.304Z,0.8
2019-05-18T09:22:37.577Z,0.8
2019-05-18T09:23:13.259Z,0.9
2019-05-18T09:24:13.296Z,1.4
2019-05-18T09:25:13.310Z,1.3
2019-05-18T09:25:49.283Z,0.9
2019-05-18T09:26:25.266Z,0.8
2019-05-18T09:27:37.345Z,0.6
2019-05-18T09:28:13.291Z,0.6
2019-05-18T09:29:13.573Z,0.8
2019-05-18T09:29:49.297Z,0.8
2019-05-18T09:30:37.377Z,1
2019-05-18T09:31:13.279Z,1.1
2019-05-18T09:32:01.262Z,0.8
2019-05-18T09:32:37.344Z,0.9
2019-05-18T09:33:25.375Z,0.9
2019-05-18T09:34:37.272Z,1.2
2019-05-18T09:35:13.263Z,1.3
2019-05-18T09:36:25.331Z,1
2019-05-18T09:37:37.238Z,0.8
2019-05-18T09:38:25.280Z,0.8
2019-05-18T09:39:13.240Z,0.8
2019-05-18T09:40:25.306Z,1.2
2019-05-18T09:41:37.255Z,0.9
2019-05-18T09:42:13.307Z,0.9
2019-05-18T09:43:37.296Z,0.4
2019-05-18T09:44:13.289Z,0.8
2019-05-18T09:45:25.397Z,0.6
2019-05-18T09:46:37.342Z,0.8
2019-05-18T09:47:13.214Z,0.9
2019-05-18T09:48:25.299Z,0.8
2019-05-18T09:49:37.234Z,0.8
2019-05-18T09:50:13.313Z,0.8
2019-05-18T09:51:25.254Z,0.8
2019-05-18T09:52:46.951Z,0.8
2019-05-18T09:53:52.686Z,1
2019-05-18T09:54:25.244Z,0.8
2019-05-18T09:55:37.287Z,0.9
2019-05-18T09:57:13.278Z,0.8
2019-05-18T09:57:49.270Z,0.8
2019-05-18T09:58:25.230Z,0.8
2019-05-18T09:59:13.210Z,0.9
2019-05-18T10:00:25.278Z,0.8
2019-05-18T10:01:37.218Z,0.9
2019-05-18T10:02:13.298Z,0.9
2019-05-18T10:03:25.226Z,0.9
2019-05-18T10:04:37.307Z,0.8
2019-05-18T10:05:13.315Z,0.8
2019-05-18T10:06:25.215Z,0.8
2019-05-18T10:07:37.324Z,1
2019-05-18T10:08:13.247Z,1
2019-05-18T10:09:25.920Z,0.2
2019-05-18T10:10:37.219Z,1.3
2019-05-18T10:11:13.196Z,1.4
2019-05-18T10:12:25.660Z,0.8
2019-05-18T10:13:25.376Z,0.8
2019-05-18T10:14:01.255Z,0.8
2019-05-18T10:15:01.318Z,0.8
2019-05-18T10:15:37.256Z,0.8
2019-05-18T10:16:13.220Z,0.8
2019-05-18T10:17:25.295Z,1
2019-05-18T10:18:01.267Z,0.9
2019-05-18T10:18:49.326Z,0.9
2019-05-18T10:19:25.254Z,1
2019-05-18T10:20:01.335Z,0.8
2019-05-18T10:20:49.345Z,0.8
2019-05-18T10:21:25.417Z,0.8
2019-05-18T10:22:01.261Z,1
2019-05-18T10:23:25.213Z,1.1
2019-05-18T10:24:01.377Z,1.1
2019-05-18T10:25:25.325Z,0.7
2019-05-18T10:26:13.295Z,0.6
2019-05-18T10:27:25.222Z,0.6
2019-05-18T10:28:01.402Z,0.8
2019-05-18T10:28:49.291Z,0.7
2019-05-18T10:29:25.379Z,0.7
2019-05-18T10:30:25.301Z,0.6
2019-05-18T10:31:01.276Z,0.9
2019-05-18T10:31:49.288Z,1.1
2019-05-18T10:32:25.244Z,1.2
2019-05-18T10:33:37.307Z,1.2
2019-05-18T10:35:13.334Z,1.1
2019-05-18T10:35:49.254Z,0.9
2019-05-18T10:36:25.232Z,0.6
2019-05-18T10:37:37.305Z,1
2019-05-18T10:38:13.286Z,0.9
2019-05-18T10:39:25.227Z,0.8
2019-05-18T10:40:37.296Z,0.9
2019-05-18T10:41:13.230Z,0.9
2019-05-18T10:42:37.224Z,1.1
2019-05-18T10:43:13.307Z,1
2019-05-18T10:44:37.263Z,0.9
2019-05-18T10:45:13.217Z,1.3
2019-05-18T10:46:25.292Z,1.9
2019-05-18T10:47:37.274Z,1.6
2019-05-18T10:48:14.015Z,1
2019-05-18T10:49:25.309Z,0.9
2019-05-18T10:50:37.186Z,0.6
2019-05-18T10:51:25.214Z,1
2019-05-18T10:52:37.263Z,1.2
2019-05-18T10:53:29.738Z,0.7
2019-05-18T10:54:25.293Z,0.8
2019-05-18T10:55:37.235Z,0.8
2019-05-18T10:56:13.188Z,0.8
2019-05-18T10:57:25.239Z,1.4
2019-05-18T10:58:37.176Z,1.1
2019-05-18T10:59:13.288Z,0.9
2019-05-18T11:00:01.261Z,0.9
2019-05-18T11:00:37.239Z,1
2019-05-18T11:01:13.208Z,1.1
2019-05-18T11:02:25.283Z,0.9
2019-05-18T11:03:37.214Z,1
2019-05-18T11:04:13.176Z,1.4
2019-05-18T11:05:25.250Z,0.9
2019-05-18T11:06:37.310Z,1
2019-05-18T11:07:13.315Z,1.4
2019-05-18T11:08:39.255Z,1.3
2019-05-18T11:09:13.204Z,1.3
2019-05-18T11:10:25.248Z,0.9
2019-05-18T11:11:37.215Z,1.1
2019-05-18T11:12:13.449Z,1.4
2019-05-18T11:13:25.207Z,1.1
2019-05-18T11:14:49.283Z,1.1
2019-05-18T11:15:25.455Z,1.4
2019-05-18T11:16:37.205Z,1.5
2019-05-18T11:17:13.236Z,1.3
2019-05-18T11:18:25.268Z,1.1
2019-05-18T11:20:01.240Z,0.7
2019-05-18T11:20:37.208Z,0.9
2019-05-18T11:21:13.177Z,0.7
2019-05-18T11:22:37.294Z,0.9
2019-05-18T11:23:13.251Z,1
2019-05-18T11:24:25.166Z,1.1
2019-05-18T11:25:01.265Z,1.1
2019-05-18T11:25:49.266Z,1.3
2019-05-18T11:26:25.270Z,1.2
2019-05-18T11:27:01.192Z,0.8
2019-05-18T11:28:13.308Z,1.5
2019-05-18T11:29:01.258Z,1.1
2019-05-18T11:29:49.263Z,1.1
2019-05-18T11:30:49.158Z,1.3
2019-05-18T11:31:25.259Z,1.2
2019-05-18T11:32:01.216Z,1
2019-05-18T11:33:13.200Z,1.1
2019-05-18T11:33:49.272Z,1.4
2019-05-18T11:35:01.188Z,0.8
2019-05-18T11:36:13.257Z,1
2019-05-18T11:37:04.063Z,1.3
2019-05-18T11:38:13.193Z,0.9
2019-05-18T11:38:49.230Z,1.1
2019-05-18T11:40:01.278Z,1.1
2019-05-18T11:41:01.251Z,0.6
2019-05-18T11:41:37.302Z,1.5
2019-05-18T11:42:13.194Z,1.8
2019-05-18T11:43:25.249Z,1.1
2019-05-18T11:44:01.227Z,1.1
2019-05-18T11:45:13.431Z,0.8
2019-05-18T11:46:25.211Z,1.5
2019-05-18T11:47:01.178Z,1.4
2019-05-18T11:48:13.358Z,0.8
2019-05-18T11:49:37.249Z,1.6
2019-05-18T11:50:13.324Z,1.1
2019-05-18T11:51:25.231Z,1
2019-05-18T11:52:01.217Z,1
2019-05-18T11:53:25.178Z,0.9
2019-05-18T11:54:01.259Z,0.8
2019-05-18T11:55:25.387Z,0.9
2019-05-18T11:56:01.228Z,1
2019-05-18T11:57:13.347Z,0.6
2019-05-18T11:58:25.252Z,0.6
2019-05-18T11:59:01.158Z,0.9
2019-05-18T12:00:13.253Z,0.9
2019-05-18T12:01:13.249Z,1.1
2019-05-18T12:01:49.223Z,1.1
2019-05-18T12:02:25.196Z,1
2019-05-18T12:03:37.237Z,0.9
2019-05-18T12:04:25.255Z,1
2019-05-18T12:05:37.199Z,1.2
2019-05-18T12:06:13.168Z,0.9
2019-05-18T12:07:37.283Z,0.9
2019-05-18T12:08:13.207Z,0.9
2019-05-18T12:09:25.334Z,0.8
2019-05-18T12:10:37.342Z,0.8
2019-05-18T12:11:13.183Z,1
2019-05-18T12:12:25.265Z,1.1
2019-05-18T12:13:13.345Z,0.9
2019-05-18T12:14:25.186Z,0.8
2019-05-18T12:15:37.261Z,0.8
2019-05-18T12:16:13.223Z,0.9
2019-05-18T12:17:25.169Z,1.2
2019-05-18T12:19:01.155Z,1
2019-05-18T12:20:01.169Z,1.7
2019-05-18T12:20:37.168Z,1.8
2019-05-18T12:21:25.382Z,1.8
2019-05-18T12:22:13.155Z,1.9
2019-05-18T12:23:25.234Z,0.6
2019-05-18T12:24:16.623Z,0.9
2019-05-18T12:25:13.238Z,0.8
2019-05-18T12:26:01.267Z,0.6
2019-05-18T12:27:01.170Z,0.8
2019-05-18T12:28:13.301Z,1.1
2019-05-18T12:28:49.149Z,0.9
2019-05-18T12:29:25.241Z,0.8
2019-05-18T12:30:37.226Z,1
2019-05-18T12:31:49.144Z,0.8
2019-05-18T12:32:25.226Z,0.9
2019-05-18T12:33:01.192Z,1.1
2019-05-18T12:33:49.281Z,1.1
2019-05-18T12:35:01.237Z,1.1
2019-05-18T12:36:16.525Z,0.8
2019-05-18T12:36:49.140Z,0.8
2019-05-18T12:38:01.224Z,1.1
2019-05-18T12:39:13.135Z,0.6
2019-05-18T12:39:49.228Z,0.6
2019-05-18T12:41:13.265Z,0.8
2019-05-18T12:41:49.174Z,0.8
2019-05-18T12:43:01.260Z,0.8
2019-05-18T12:44:25.188Z,1.8
2019-05-18T12:45:13.220Z,1.2
2019-05-18T12:45:49.178Z,1
2019-05-18T12:46:37.346Z,1.2
2019-05-18T12:47:15.254Z,0.9
2019-05-18T12:47:49.242Z,0.6
2019-05-18T12:49:01.302Z,0.8
2019-05-18T12:50:13.227Z,1
2019-05-18T12:51:13.130Z,0.9
2019-05-18T12:53:37.147Z,0.8
2019-05-18T12:54:47.535Z,1
2019-05-18T12:55:01.220Z,0.9
2019-05-18T12:55:37.183Z,1
2019-05-18T12:56:49.138Z,0.8
2019-05-18T12:58:01.195Z,0.8
2019-05-18T12:58:38.533Z,1
2019-05-18T12:59:49.206Z,1.7
2019-05-18T13:00:49.148Z,1
2019-05-18T13:01:25.214Z,1.2
2019-05-18T13:02:13.195Z,1.1
2019-05-18T13:02:49.178Z,0.8
2019-05-18T13:04:13.180Z,1.6
2019-05-18T13:05:01.153Z,1.3
2019-05-18T13:06:25.407Z,0.9
2019-05-18T13:07:01.200Z,0.8
2019-05-18T13:07:49.302Z,0.9
2019-05-18T13:08:37.205Z,0.8
2019-05-18T13:09:13.270Z,0.6
2019-05-18T13:09:49.140Z,0.8
2019-05-18T13:10:49.184Z,0.6
2019-05-18T13:11:25.143Z,0.8
2019-05-18T13:12:01.111Z,0.8
2019-05-18T13:13:13.178Z,0.9
2019-05-18T13:13:49.126Z,1.2
2019-05-18T13:14:49.201Z,0.8
2019-05-18T13:15:25.141Z,0.8
2019-05-18T13:16:01.105Z,1.1
2019-05-18T13:17:25.186Z,0.8
2019-05-18T13:18:13.183Z,0.8
2019-05-18T13:19:13.098Z,0.7
2019-05-18T13:19:49.234Z,0.4
2019-05-18T13:20:37.202Z,0.6
2019-05-18T13:21:13.197Z,0.4
2019-05-18T13:22:25.112Z,0.8
2019-05-18T13:23:37.152Z,0.9
2019-05-18T13:24:13.118Z,0.8
2019-05-18T13:24:52.727Z,0.8
2019-05-18T13:26:49.196Z,0.8
2019-05-18T13:27:40.673Z,0.8
2019-05-18T13:28:37.183Z,0.8